sensor_id;sensor_type;location;lat;lon;timestamp;temperature;humidity
13375;DHT22;6756;51.354;15.754;2024-03-02T00:01:12;9.40;99.90
13375;DHT22;6756;51.354;15.754;2024-03-02T00:05:20;9.40;99.90
13375;DHT22;6756;51.354;15.754;2024-03-02T00:09:21;9.40;99.90
13375;DHT22;6756;51.354;15.754;2024-03-02T00:13:22;9.40;99.90
13375;DHT22;6756;51.354;15.754;2024-03-02T00:17:25;9.40;99.90
13375;DHT22;6756;51.354;15.754;2024-03-02T00:21:27;9.40;99.90
13375;DHT22;6756;51.354;15.754;2024-03-02T00:25:43;9.40;99.90
13375;DHT22;6756;51.354;15.754;2024-03-02T00:29:44;9.40;99.90
13375;DHT22;6756;51.354;15.754;2024-03-02T00:33:47;9.40;99.90
13375;DHT22;6756;51.354;15.754;2024-03-02T00:37:48;9.40;99.90
13375;DHT22;6756;51.354;15.754;2024-03-02T00:41:49;9.40;99.90
13375;DHT22;6756;51.354;15.754;2024-03-02T00:45:49;9.40;99.90
13375;DHT22;6756;51.354;15.754;2024-03-02T00:49:50;9.40;99.90
13375;DHT22;6756;51.354;15.754;2024-03-02T00:53:52;9.40;99.90
13375;DHT22;6756;51.354;15.754;2024-03-02T00:57:55;9.40;99.90
13375;DHT22;6756;51.354;15.754;2024-03-02T01:01:56;9.40;99.90
13375;DHT22;6756;51.354;15.754;2024-03-02T01:05:57;9.50;99.90
13375;DHT22;6756;51.354;15.754;2024-03-02T01:09:58;9.50;99.90
13375;DHT22;6756;51.354;15.754;2024-03-02T01:13:59;9.50;99.90
13375;DHT22;6756;51.354;15.754;2024-03-02T01:17:59;9.50;99.90
13375;DHT22;6756;51.354;15.754;2024-03-02T01:22:00;9.50;99.90
13375;DHT22;6756;51.354;15.754;2024-03-02T01:26:01;9.50;99.90
13375;DHT22;6756;51.354;15.754;2024-03-02T01:30:02;9.60;99.90
13375;DHT22;6756;51.354;15.754;2024-03-02T01:34:02;9.60;99.90
13375;DHT22;6756;51.354;15.754;2024-03-02T01:38:04;9.50;99.90
13375;DHT22;6756;51.354;15.754;2024-03-02T01:42:06;9.50;99.90
13375;DHT22;6756;51.354;15.754;2024-03-02T01:46:07;9.50;99.90
13375;DHT22;6756;51.354;15.754;2024-03-02T01:50:08;9.50;99.90
13375;DHT22;6756;51.354;15.754;2024-03-02T01:54:09;9.50;99.90
13375;DHT22;6756;51.354;15.754;2024-03-02T01:58:10;9.50;99.90
13375;DHT22;6756;51.354;15.754;2024-03-02T02:02:11;9.50;99.90
13375;DHT22;6756;51.354;15.754;2024-03-02T02:06:11;9.50;99.90
13375;DHT22;6756;51.354;15.754;2024-03-02T02:10:13;9.50;99.90
13375;DHT22;6756;51.354;15.754;2024-03-02T02:14:14;9.50;99.90
13375;DHT22;6756;51.354;15.754;2024-03-02T02:18:15;9.60;99.90
13375;DHT22;6756;51.354;15.754;2024-03-02T02:22:15;9.60;99.90
13375;DHT22;6756;51.354;15.754;2024-03-02T02:26:16;9.60;99.90
13375;DHT22;6756;51.354;15.754;2024-03-02T02:30:22;9.60;99.90
13375;DHT22;6756;51.354;15.754;2024-03-02T02:34:23;9.60;99.90
13375;DHT22;6756;51.354;15.754;2024-03-02T02:38:24;9.60;99.90
13375;DHT22;6756;51.354;15.754;2024-03-02T02:42:24;9.60;99.90
13375;DHT22;6756;51.354;15.754;2024-03-02T02:46:25;9.60;99.90
13375;DHT22;6756;51.354;15.754;2024-03-02T02:50:26;9.60;99.90
13375;DHT22;6756;51.354;15.754;2024-03-02T02:54:26;9.50;99.90
13375;DHT22;6756;51.354;15.754;2024-03-02T02:58:27;9.50;99.90
13375;DHT22;6756;51.354;15.754;2024-03-02T03:02:28;9.50;99.90
13375;DHT22;6756;51.354;15.754;2024-03-02T03:06:29;9.50;99.90
13375;DHT22;6756;51.354;15.754;2024-03-02T03:10:30;9.50;99.90
13375;DHT22;6756;51.354;15.754;2024-03-02T03:14:31;9.50;99.90
13375;DHT22;6756;51.354;15.754;2024-03-02T03:18:31;9.50;99.90
13375;DHT22;6756;51.354;15.754;2024-03-02T03:22:32;9.40;99.90
13375;DHT22;6756;51.354;15.754;2024-03-02T03:26:36;9.30;99.90
13375;DHT22;6756;51.354;15.754;2024-03-02T03:30:37;9.30;99.90
13375;DHT22;6756;51.354;15.754;2024-03-02T03:34:38;9.30;99.90
13375;DHT22;6756;51.354;15.754;2024-03-02T03:38:39;9.20;99.90
13375;DHT22;6756;51.354;15.754;2024-03-02T03:42:40;9.10;99.90
13375;DHT22;6756;51.354;15.754;2024-03-02T03:46:41;9.00;99.90
13375;DHT22;6756;51.354;15.754;2024-03-02T03:50:42;8.90;99.90
13375;DHT22;6756;51.354;15.754;2024-03-02T03:54:42;8.90;99.90
13375;DHT22;6756;51.354;15.754;2024-03-02T03:58:45;8.70;99.90
13375;DHT22;6756;51.354;15.754;2024-03-02T04:02:45;8.60;99.90
13375;DHT22;6756;51.354;15.754;2024-03-02T04:06:46;8.50;99.90
13375;DHT22;6756;51.354;15.754;2024-03-02T04:10:47;8.50;99.90
13375;DHT22;6756;51.354;15.754;2024-03-02T04:14:48;8.40;99.90
13375;DHT22;6756;51.354;15.754;2024-03-02T04:18:48;8.30;99.90
13375;DHT22;6756;51.354;15.754;2024-03-02T04:22:49;8.20;99.90
13375;DHT22;6756;51.354;15.754;2024-03-02T04:26:50;8.20;99.90
13375;DHT22;6756;51.354;15.754;2024-03-02T04:30:50;8.20;99.90
13375;DHT22;6756;51.354;15.754;2024-03-02T04:34:51;8.10;99.90
13375;DHT22;6756;51.354;15.754;2024-03-02T04:38:52;8.10;99.90
13375;DHT22;6756;51.354;15.754;2024-03-02T04:42:53;8.20;99.90
13375;DHT22;6756;51.354;15.754;2024-03-02T04:46:53;8.20;99.90
13375;DHT22;6756;51.354;15.754;2024-03-02T04:50:54;8.30;99.90
13375;DHT22;6756;51.354;15.754;2024-03-02T04:54:55;8.40;99.90
13375;DHT22;6756;51.354;15.754;2024-03-02T04:59:25;8.50;99.90
13375;DHT22;6756;51.354;15.754;2024-03-02T05:03:26;8.50;99.90
13375;DHT22;6756;51.354;15.754;2024-03-02T05:07:26;8.60;99.90
13375;DHT22;6756;51.354;15.754;2024-03-02T05:11:27;8.60;99.90
13375;DHT22;6756;51.354;15.754;2024-03-02T05:15:37;8.70;99.90
13375;DHT22;6756;51.354;15.754;2024-03-02T05:19:38;8.70;99.90
13375;DHT22;6756;51.354;15.754;2024-03-02T05:23:39;8.70;99.90
13375;DHT22;6756;51.354;15.754;2024-03-02T05:27:39;8.70;99.90
13375;DHT22;6756;51.354;15.754;2024-03-02T05:31:40;8.70;99.90
13375;DHT22;6756;51.354;15.754;2024-03-02T05:35:41;8.70;99.90
13375;DHT22;6756;51.354;15.754;2024-03-02T05:39:42;8.60;99.90
13375;DHT22;6756;51.354;15.754;2024-03-02T05:43:43;8.60;99.90
13375;DHT22;6756;51.354;15.754;2024-03-02T05:47:44;8.60;99.90
13375;DHT22;6756;51.354;15.754;2024-03-02T05:51:45;8.40;99.90
13375;DHT22;6756;51.354;15.754;2024-03-02T05:55:46;8.20;99.90
13375;DHT22;6756;51.354;15.754;2024-03-02T05:59:47;8.20;99.90
13375;DHT22;6756;51.354;15.754;2024-03-02T06:03:48;8.20;99.90
13375;DHT22;6756;51.354;15.754;2024-03-02T06:07:51;8.30;99.90
13375;DHT22;6756;51.354;15.754;2024-03-02T06:11:51;8.30;99.90
13375;DHT22;6756;51.354;15.754;2024-03-02T06:15:53;8.30;99.90
13375;DHT22;6756;51.354;15.754;2024-03-02T06:19:53;8.30;99.90
13375;DHT22;6756;51.354;15.754;2024-03-02T06:23:54;8.30;99.90
13375;DHT22;6756;51.354;15.754;2024-03-02T06:27:55;8.20;99.90
13375;DHT22;6756;51.354;15.754;2024-03-02T06:31:56;8.30;99.90
13375;DHT22;6756;51.354;15.754;2024-03-02T06:35:57;8.40;99.90
13375;DHT22;6756;51.354;15.754;2024-03-02T06:39:57;8.50;99.90
13375;DHT22;6756;51.354;15.754;2024-03-02T06:43:58;8.60;99.90
13375;DHT22;6756;51.354;15.754;2024-03-02T06:48:02;8.70;99.90
13375;DHT22;6756;51.354;15.754;2024-03-02T06:52:03;8.90;99.90
13375;DHT22;6756;51.354;15.754;2024-03-02T06:56:04;8.90;99.90
13375;DHT22;6756;51.354;15.754;2024-03-02T07:00:05;9.00;99.90
13375;DHT22;6756;51.354;15.754;2024-03-02T07:04:09;9.10;99.90
13375;DHT22;6756;51.354;15.754;2024-03-02T07:08:10;9.20;99.90
13375;DHT22;6756;51.354;15.754;2024-03-02T07:12:11;9.20;99.90
13375;DHT22;6756;51.354;15.754;2024-03-02T07:16:11;9.10;99.90
13375;DHT22;6756;51.354;15.754;2024-03-02T07:20:33;9.00;99.90
13375;DHT22;6756;51.354;15.754;2024-03-02T07:24:41;9.00;99.90
13375;DHT22;6756;51.354;15.754;2024-03-02T07:28:42;9.00;99.90
13375;DHT22;6756;51.354;15.754;2024-03-02T07:32:44;9.10;99.90
13375;DHT22;6756;51.354;15.754;2024-03-02T07:36:46;9.20;99.90
13375;DHT22;6756;51.354;15.754;2024-03-02T07:40:47;9.30;99.90
13375;DHT22;6756;51.354;15.754;2024-03-02T07:44:51;9.40;99.90
13375;DHT22;6756;51.354;15.754;2024-03-02T07:48:52;9.60;99.90
13375;DHT22;6756;51.354;15.754;2024-03-02T07:52:53;9.70;99.90
13375;DHT22;6756;51.354;15.754;2024-03-02T07:56:54;9.90;99.90
13375;DHT22;6756;51.354;15.754;2024-03-02T08:00:54;10.10;99.90
13375;DHT22;6756;51.354;15.754;2024-03-02T08:04:55;10.50;99.90
13375;DHT22;6756;51.354;15.754;2024-03-02T08:09:01;10.60;99.90
13375;DHT22;6756;51.354;15.754;2024-03-02T08:13:01;10.80;99.90
13375;DHT22;6756;51.354;15.754;2024-03-02T08:17:02;11.10;99.90
13375;DHT22;6756;51.354;15.754;2024-03-02T08:21:04;11.50;99.90
13375;DHT22;6756;51.354;15.754;2024-03-02T08:25:05;11.70;99.90
13375;DHT22;6756;51.354;15.754;2024-03-02T08:29:06;12.10;99.90
13375;DHT22;6756;51.354;15.754;2024-03-02T08:33:07;12.60;1.00
13375;DHT22;6756;51.354;15.754;2024-03-02T08:37:07;13.20;99.90
13375;DHT22;6756;51.354;15.754;2024-03-02T08:41:08;13.50;99.90
13375;DHT22;6756;51.354;15.754;2024-03-02T08:45:09;13.60;99.90
13375;DHT22;6756;51.354;15.754;2024-03-02T08:49:10;13.70;99.90
13375;DHT22;6756;51.354;15.754;2024-03-02T08:53:11;13.40;82.00
13375;DHT22;6756;51.354;15.754;2024-03-02T08:57:12;13.30;94.80
13375;DHT22;6756;51.354;15.754;2024-03-02T09:01:13;13.40;98.90
13375;DHT22;6756;51.354;15.754;2024-03-02T09:05:14;13.50;97.90
13375;DHT22;6756;51.354;15.754;2024-03-02T09:09:14;13.60;85.30
13375;DHT22;6756;51.354;15.754;2024-03-02T09:13:15;13.90;65.40
13375;DHT22;6756;51.354;15.754;2024-03-02T09:17:16;14.10;34.90
13375;DHT22;6756;51.354;15.754;2024-03-02T09:21:17;14.20;29.40
13375;DHT22;6756;51.354;15.754;2024-03-02T09:25:17;14.50;22.60
13375;DHT22;6756;51.354;15.754;2024-03-02T09:29:18;14.90;12.40
13375;DHT22;6756;51.354;15.754;2024-03-02T09:33:21;15.30;1.00
13375;DHT22;6756;51.354;15.754;2024-03-02T09:37:22;15.40;1.00
13375;DHT22;6756;51.354;15.754;2024-03-02T09:41:22;15.40;1.00
13375;DHT22;6756;51.354;15.754;2024-03-02T09:45:24;15.50;1.00
13375;DHT22;6756;51.354;15.754;2024-03-02T09:49:25;15.40;1.00
13375;DHT22;6756;51.354;15.754;2024-03-02T09:53:30;15.20;1.00
13375;DHT22;6756;51.354;15.754;2024-03-02T09:57:31;14.90;1.00
13375;DHT22;6756;51.354;15.754;2024-03-02T10:01:32;14.90;1.00
13375;DHT22;6756;51.354;15.754;2024-03-02T10:05:33;14.90;1.00
13375;DHT22;6756;51.354;15.754;2024-03-02T10:09:33;14.90;1.00
13375;DHT22;6756;51.354;15.754;2024-03-02T10:13:34;14.80;1.00
13375;DHT22;6756;51.354;15.754;2024-03-02T10:17:35;14.70;1.00
13375;DHT22;6756;51.354;15.754;2024-03-02T10:21:40;14.50;1.00
13375;DHT22;6756;51.354;15.754;2024-03-02T10:25:41;14.30;1.00
13375;DHT22;6756;51.354;15.754;2024-03-02T10:29:45;14.10;1.00
13375;DHT22;6756;51.354;15.754;2024-03-02T10:33:46;14.00;1.00
13375;DHT22;6756;51.354;15.754;2024-03-02T10:37:47;13.90;1.00
13375;DHT22;6756;51.354;15.754;2024-03-02T10:41:49;13.90;1.00
13375;DHT22;6756;51.354;15.754;2024-03-02T10:45:52;13.80;1.00
13375;DHT22;6756;51.354;15.754;2024-03-02T10:49:55;13.80;1.00
13375;DHT22;6756;51.354;15.754;2024-03-02T10:54:00;13.90;1.00
13375;DHT22;6756;51.354;15.754;2024-03-02T10:58:04;13.80;1.00
13375;DHT22;6756;51.354;15.754;2024-03-02T11:02:11;13.60;1.00
13375;DHT22;6756;51.354;15.754;2024-03-02T11:06:13;13.50;2.70
13375;DHT22;6756;51.354;15.754;2024-03-02T11:10:15;13.60;1.00
13375;DHT22;6756;51.354;15.754;2024-03-02T11:14:17;13.70;1.00
13375;DHT22;6756;51.354;15.754;2024-03-02T11:18:22;13.80;1.00
13375;DHT22;6756;51.354;15.754;2024-03-02T11:22:23;14.10;1.00
13375;DHT22;6756;51.354;15.754;2024-03-02T11:26:24;14.50;1.00
13375;DHT22;6756;51.354;15.754;2024-03-02T11:34:36;14.80;1.00
13375;DHT22;6756;51.354;15.754;2024-03-02T11:38:43;14.80;1.00
13375;DHT22;6756;51.354;15.754;2024-03-02T11:42:46;14.90;1.00
13375;DHT22;6756;51.354;15.754;2024-03-02T11:46:59;15.30;1.00
13375;DHT22;6756;51.354;15.754;2024-03-02T11:51:00;15.80;1.00
13375;DHT22;6756;51.354;15.754;2024-03-02T11:55:02;16.20;1.00
13375;DHT22;6756;51.354;15.754;2024-03-02T11:59:04;16.50;1.00
13375;DHT22;6756;51.354;15.754;2024-03-02T12:03:10;16.70;1.00
13375;DHT22;6756;51.354;15.754;2024-03-02T12:07:12;16.90;1.00
13375;DHT22;6756;51.354;15.754;2024-03-02T12:11:20;16.80;1.00
13375;DHT22;6756;51.354;15.754;2024-03-02T12:15:27;16.90;1.00
13375;DHT22;6756;51.354;15.754;2024-03-02T12:19:28;17.10;1.00
13375;DHT22;6756;51.354;15.754;2024-03-02T12:23:30;17.20;1.00
13375;DHT22;6756;51.354;15.754;2024-03-02T12:27:31;17.20;1.00
13375;DHT22;6756;51.354;15.754;2024-03-02T12:31:32;17.00;1.00
13375;DHT22;6756;51.354;15.754;2024-03-02T12:35:33;17.10;1.00
13375;DHT22;6756;51.354;15.754;2024-03-02T12:39:33;17.00;1.00
13375;DHT22;6756;51.354;15.754;2024-03-02T12:43:34;16.80;1.00
13375;DHT22;6756;51.354;15.754;2024-03-02T12:47:36;16.80;1.00
13375;DHT22;6756;51.354;15.754;2024-03-02T12:51:38;16.80;1.00
13375;DHT22;6756;51.354;15.754;2024-03-02T12:55:41;16.60;1.00
13375;DHT22;6756;51.354;15.754;2024-03-02T12:59:45;16.50;1.00
13375;DHT22;6756;51.354;15.754;2024-03-02T13:03:52;16.50;1.00
13375;DHT22;6756;51.354;15.754;2024-03-02T13:07:54;16.50;1.00
13375;DHT22;6756;51.354;15.754;2024-03-02T13:11:55;16.50;1.00
13375;DHT22;6756;51.354;15.754;2024-03-02T13:15:57;16.40;1.00
13375;DHT22;6756;51.354;15.754;2024-03-02T13:19:59;16.30;1.00
13375;DHT22;6756;51.354;15.754;2024-03-02T13:24:00;16.30;1.00
13375;DHT22;6756;51.354;15.754;2024-03-02T13:28:01;16.20;1.00
13375;DHT22;6756;51.354;15.754;2024-03-02T13:32:03;16.10;1.00
13375;DHT22;6756;51.354;15.754;2024-03-02T13:36:04;15.90;1.00
13375;DHT22;6756;51.354;15.754;2024-03-02T13:40:06;15.90;1.00
13375;DHT22;6756;51.354;15.754;2024-03-02T13:44:07;15.80;1.00
13375;DHT22;6756;51.354;15.754;2024-03-02T13:48:08;15.80;1.00
13375;DHT22;6756;51.354;15.754;2024-03-02T13:52:09;15.70;1.00
13375;DHT22;6756;51.354;15.754;2024-03-02T13:56:17;15.70;1.00
13375;DHT22;6756;51.354;15.754;2024-03-02T14:00:18;15.70;1.00
13375;DHT22;6756;51.354;15.754;2024-03-02T14:04:19;15.70;1.00
13375;DHT22;6756;51.354;15.754;2024-03-02T14:08:20;15.60;1.00
13375;DHT22;6756;51.354;15.754;2024-03-02T14:12:20;15.50;1.00
13375;DHT22;6756;51.354;15.754;2024-03-02T14:16:22;15.50;1.00
13375;DHT22;6756;51.354;15.754;2024-03-02T14:20:23;15.50;1.00
13375;DHT22;6756;51.354;15.754;2024-03-02T14:24:24;15.40;1.00
13375;DHT22;6756;51.354;15.754;2024-03-02T14:28:26;15.30;1.00
13375;DHT22;6756;51.354;15.754;2024-03-02T14:32:27;15.20;1.00
13375;DHT22;6756;51.354;15.754;2024-03-02T14:36:27;15.10;1.00
13375;DHT22;6756;51.354;15.754;2024-03-02T14:40:29;15.00;1.00
13375;DHT22;6756;51.354;15.754;2024-03-02T14:44:30;14.90;1.00
13375;DHT22;6756;51.354;15.754;2024-03-02T14:48:31;14.90;1.00
13375;DHT22;6756;51.354;15.754;2024-03-02T14:52:33;14.90;1.00
13375;DHT22;6756;51.354;15.754;2024-03-02T14:56:33;14.80;1.00
13375;DHT22;6756;51.354;15.754;2024-03-02T15:00:34;14.70;1.00
13375;DHT22;6756;51.354;15.754;2024-03-02T15:04:35;14.60;1.00
13375;DHT22;6756;51.354;15.754;2024-03-02T15:08:36;14.50;1.00
13375;DHT22;6756;51.354;15.754;2024-03-02T15:12:37;14.40;1.00
13375;DHT22;6756;51.354;15.754;2024-03-02T15:16:38;14.30;1.00
13375;DHT22;6756;51.354;15.754;2024-03-02T15:20:39;14.20;1.00
13375;DHT22;6756;51.354;15.754;2024-03-02T15:24:41;14.10;1.00
13375;DHT22;6756;51.354;15.754;2024-03-02T15:28:42;14.00;1.00
13375;DHT22;6756;51.354;15.754;2024-03-02T15:32:43;13.90;1.00
13375;DHT22;6756;51.354;15.754;2024-03-02T15:36:43;13.80;1.00
13375;DHT22;6756;51.354;15.754;2024-03-02T15:40:44;13.70;1.00
13375;DHT22;6756;51.354;15.754;2024-03-02T15:44:45;13.60;1.00
13375;DHT22;6756;51.354;15.754;2024-03-02T15:48:46;13.40;1.00
13375;DHT22;6756;51.354;15.754;2024-03-02T15:52:46;13.30;1.00
13375;DHT22;6756;51.354;15.754;2024-03-02T15:56:47;13.20;1.00
13375;DHT22;6756;51.354;15.754;2024-03-02T16:00:48;13.10;1.00
13375;DHT22;6756;51.354;15.754;2024-03-02T16:04:49;13.00;1.00
13375;DHT22;6756;51.354;15.754;2024-03-02T16:08:50;12.90;6.00
13375;DHT22;6756;51.354;15.754;2024-03-02T16:12:51;12.80;16.10
13375;DHT22;6756;51.354;15.754;2024-03-02T16:16:53;12.80;37.70
13375;DHT22;6756;51.354;15.754;2024-03-02T16:20:54;12.70;59.20
13375;DHT22;6756;51.354;15.754;2024-03-02T16:24:55;12.60;90.80
13375;DHT22;6756;51.354;15.754;2024-03-02T16:28:56;12.50;99.90
13375;DHT22;6756;51.354;15.754;2024-03-02T16:32:57;12.30;99.90
13375;DHT22;6756;51.354;15.754;2024-03-02T16:36:57;12.20;99.90
13375;DHT22;6756;51.354;15.754;2024-03-02T16:40:58;12.10;99.90
13375;DHT22;6756;51.354;15.754;2024-03-02T16:44:59;11.90;99.90
13375;DHT22;6756;51.354;15.754;2024-03-02T16:49:00;11.80;99.90
13375;DHT22;6756;51.354;15.754;2024-03-02T16:53:00;11.70;99.90
13375;DHT22;6756;51.354;15.754;2024-03-02T16:57:01;11.60;99.90
13375;DHT22;6756;51.354;15.754;2024-03-02T17:01:02;11.50;99.90
13375;DHT22;6756;51.354;15.754;2024-03-02T17:05:03;11.40;99.90
13375;DHT22;6756;51.354;15.754;2024-03-02T17:09:04;11.30;1.00
13375;DHT22;6756;51.354;15.754;2024-03-02T17:13:05;11.20;1.00
13375;DHT22;6756;51.354;15.754;2024-03-02T17:17:06;11.10;1.00
13375;DHT22;6756;51.354;15.754;2024-03-02T17:21:07;11.00;1.00
13375;DHT22;6756;51.354;15.754;2024-03-02T17:25:08;10.90;1.00
13375;DHT22;6756;51.354;15.754;2024-03-02T17:29:09;10.80;1.00
13375;DHT22;6756;51.354;15.754;2024-03-02T17:33:10;10.70;1.00
13375;DHT22;6756;51.354;15.754;2024-03-02T17:37:11;10.50;1.00
13375;DHT22;6756;51.354;15.754;2024-03-02T17:41:13;10.40;73.00
13375;DHT22;6756;51.354;15.754;2024-03-02T17:45:13;10.20;99.90
13375;DHT22;6756;51.354;15.754;2024-03-02T17:49:15;10.00;99.90
13375;DHT22;6756;51.354;15.754;2024-03-02T17:53:16;9.90;99.90
13375;DHT22;6756;51.354;15.754;2024-03-02T17:57:17;9.70;99.90
13375;DHT22;6756;51.354;15.754;2024-03-02T18:01:17;9.50;99.90
13375;DHT22;6756;51.354;15.754;2024-03-02T18:05:18;9.40;1.00
13375;DHT22;6756;51.354;15.754;2024-03-02T18:09:19;9.20;99.90
13375;DHT22;6756;51.354;15.754;2024-03-02T18:13:20;9.20;99.90
13375;DHT22;6756;51.354;15.754;2024-03-02T18:17:21;9.10;99.90
13375;DHT22;6756;51.354;15.754;2024-03-02T18:21:21;8.90;1.00
13375;DHT22;6756;51.354;15.754;2024-03-02T18:25:22;8.80;1.00
13375;DHT22;6756;51.354;15.754;2024-03-02T18:29:23;8.70;99.90
13375;DHT22;6756;51.354;15.754;2024-03-02T18:33:24;8.60;99.90
13375;DHT22;6756;51.354;15.754;2024-03-02T18:37:25;8.40;99.90
13375;DHT22;6756;51.354;15.754;2024-03-02T18:41:25;8.20;99.90
13375;DHT22;6756;51.354;15.754;2024-03-02T18:45:26;8.10;21.40
13375;DHT22;6756;51.354;15.754;2024-03-02T18:49:27;8.00;99.90
13375;DHT22;6756;51.354;15.754;2024-03-02T18:53:28;7.90;99.90
13375;DHT22;6756;51.354;15.754;2024-03-02T18:57:29;7.70;1.00
13375;DHT22;6756;51.354;15.754;2024-03-02T19:01:30;7.60;99.90
13375;DHT22;6756;51.354;15.754;2024-03-02T19:05:31;7.50;99.90
13375;DHT22;6756;51.354;15.754;2024-03-02T19:09:32;7.40;1.00
13375;DHT22;6756;51.354;15.754;2024-03-02T19:13:33;7.30;99.90
13375;DHT22;6756;51.354;15.754;2024-03-02T19:17:34;7.20;31.10
13375;DHT22;6756;51.354;15.754;2024-03-02T19:21:35;7.10;99.90
13375;DHT22;6756;51.354;15.754;2024-03-02T19:25:36;7.10;99.90
13375;DHT22;6756;51.354;15.754;2024-03-02T19:29:37;7.00;99.90
13375;DHT22;6756;51.354;15.754;2024-03-02T19:33:38;7.00;99.90
13375;DHT22;6756;51.354;15.754;2024-03-02T19:37:39;6.90;99.90
13375;DHT22;6756;51.354;15.754;2024-03-02T19:41:40;6.90;1.00
13375;DHT22;6756;51.354;15.754;2024-03-02T19:45:41;6.90;1.00
13375;DHT22;6756;51.354;15.754;2024-03-02T19:49:45;6.90;1.00
13375;DHT22;6756;51.354;15.754;2024-03-02T19:53:46;7.10;99.90
13375;DHT22;6756;51.354;15.754;2024-03-02T19:57:48;7.30;99.90
13375;DHT22;6756;51.354;15.754;2024-03-02T20:01:49;7.50;99.90
13375;DHT22;6756;51.354;15.754;2024-03-02T20:05:50;7.80;99.90
13375;DHT22;6756;51.354;15.754;2024-03-02T20:09:50;8.00;99.90
13375;DHT22;6756;51.354;15.754;2024-03-02T20:13:53;8.20;99.90
13375;DHT22;6756;51.354;15.754;2024-03-02T20:17:54;8.30;99.90
13375;DHT22;6756;51.354;15.754;2024-03-02T20:21:55;8.50;99.90
13375;DHT22;6756;51.354;15.754;2024-03-02T20:25:56;8.60;99.90
13375;DHT22;6756;51.354;15.754;2024-03-02T20:29:58;8.70;99.90
13375;DHT22;6756;51.354;15.754;2024-03-02T20:33:59;8.70;99.90
13375;DHT22;6756;51.354;15.754;2024-03-02T20:38:00;8.80;99.90
13375;DHT22;6756;51.354;15.754;2024-03-02T20:42:01;8.80;99.90
13375;DHT22;6756;51.354;15.754;2024-03-02T20:46:02;8.90;99.90
13375;DHT22;6756;51.354;15.754;2024-03-02T20:50:05;8.90;99.90
13375;DHT22;6756;51.354;15.754;2024-03-02T20:54:07;8.90;99.90
13375;DHT22;6756;51.354;15.754;2024-03-02T20:58:08;8.90;99.90
13375;DHT22;6756;51.354;15.754;2024-03-02T21:02:09;9.00;99.90
13375;DHT22;6756;51.354;15.754;2024-03-02T21:06:10;9.00;99.90
13375;DHT22;6756;51.354;15.754;2024-03-02T21:10:11;9.10;99.90
13375;DHT22;6756;51.354;15.754;2024-03-02T21:14:12;9.10;99.90
13375;DHT22;6756;51.354;15.754;2024-03-02T21:18:13;9.10;99.90
13375;DHT22;6756;51.354;15.754;2024-03-02T21:22:14;9.00;99.90
13375;DHT22;6756;51.354;15.754;2024-03-02T21:26:15;9.00;99.90
13375;DHT22;6756;51.354;15.754;2024-03-02T21:30:16;9.10;99.90
13375;DHT22;6756;51.354;15.754;2024-03-02T21:34:19;9.10;99.90
13375;DHT22;6756;51.354;15.754;2024-03-02T21:38:19;9.20;99.90
13375;DHT22;6756;51.354;15.754;2024-03-02T21:42:20;9.30;99.90
13375;DHT22;6756;51.354;15.754;2024-03-02T21:46:21;9.40;99.90
13375;DHT22;6756;51.354;15.754;2024-03-02T21:50:22;9.50;99.90
13375;DHT22;6756;51.354;15.754;2024-03-02T21:54:23;9.60;99.90
13375;DHT22;6756;51.354;15.754;2024-03-02T21:58:24;9.70;99.90
13375;DHT22;6756;51.354;15.754;2024-03-02T22:02:24;9.70;99.90
13375;DHT22;6756;51.354;15.754;2024-03-02T22:06:25;9.70;99.90
13375;DHT22;6756;51.354;15.754;2024-03-02T22:10:26;9.80;99.90
13375;DHT22;6756;51.354;15.754;2024-03-02T22:14:27;9.80;99.90
13375;DHT22;6756;51.354;15.754;2024-03-02T22:18:28;9.80;99.90
13375;DHT22;6756;51.354;15.754;2024-03-02T22:22:29;9.80;99.90
13375;DHT22;6756;51.354;15.754;2024-03-02T22:26:30;9.80;99.90
13375;DHT22;6756;51.354;15.754;2024-03-02T22:30:30;9.80;99.90
13375;DHT22;6756;51.354;15.754;2024-03-02T22:34:31;9.80;99.90
13375;DHT22;6756;51.354;15.754;2024-03-02T22:38:32;9.80;99.90
13375;DHT22;6756;51.354;15.754;2024-03-02T22:42:33;9.80;99.90
13375;DHT22;6756;51.354;15.754;2024-03-02T22:46:34;9.80;99.90
13375;DHT22;6756;51.354;15.754;2024-03-02T22:50:35;9.90;99.90
13375;DHT22;6756;51.354;15.754;2024-03-02T22:54:35;9.80;99.90
13375;DHT22;6756;51.354;15.754;2024-03-02T22:58:37;9.90;99.90
13375;DHT22;6756;51.354;15.754;2024-03-02T23:02:38;9.90;99.90
13375;DHT22;6756;51.354;15.754;2024-03-02T23:06:39;9.80;99.90
13375;DHT22;6756;51.354;15.754;2024-03-02T23:10:40;9.80;99.90
13375;DHT22;6756;51.354;15.754;2024-03-02T23:14:41;9.90;99.90
13375;DHT22;6756;51.354;15.754;2024-03-02T23:18:41;9.80;99.90
13375;DHT22;6756;51.354;15.754;2024-03-02T23:22:43;9.80;99.90
13375;DHT22;6756;51.354;15.754;2024-03-02T23:26:45;9.80;99.90
13375;DHT22;6756;51.354;15.754;2024-03-02T23:30:46;9.90;99.90
13375;DHT22;6756;51.354;15.754;2024-03-02T23:34:47;9.90;99.90
13375;DHT22;6756;51.354;15.754;2024-03-02T23:38:47;9.90;99.90
13375;DHT22;6756;51.354;15.754;2024-03-02T23:42:48;9.90;99.90
13375;DHT22;6756;51.354;15.754;2024-03-02T23:46:49;9.80;99.90
13375;DHT22;6756;51.354;15.754;2024-03-02T23:50:50;9.80;99.90
13375;DHT22;6756;51.354;15.754;2024-03-02T23:54:51;9.80;99.90
13375;DHT22;6756;51.354;15.754;2024-03-02T23:58:51;9.80;99.90
